Terminal Aerodrome Forecast
Issued by NWS Brownsville, TX

Home | Current Version | Previous Version | Text Only | Print | Product List | Glossary On
Versions: 1 2 3 4 5 6 7 8 9 10 11 12 13 14 15 16 17 18 19 20 21
000
FTUS44 KBRO 011935 AAA
TAFBRO
TAF AMD
KBRO 011935Z 0120/0218 15006KT P6SM FEW028 SCT035
     FM020000 08009KT 5SM BR OVC009
     FM020500 VRB03KT 4SM BR OVC004
     FM020900 01004KT 4SM BR OVC009
     FM021400 36007KT 6SM HZ OVC003=

USA.gov is the U.S. government's official web portal to all federal, state and local government web resources and services.